sensor_id;sensor_type;location;lat;lon;timestamp;pressure;altitude;pressure_sealevel;temperature;humidity
43621;BME280;29213;50.770;7.298;2022-12-05T00:00:51;100764.44;;;2.12;62.30
43621;BME280;29213;50.770;7.298;2022-12-05T00:03:18;100789.69;;;2.28;62.77
43621;BME280;29213;50.770;7.298;2022-12-05T00:05:43;100768.25;;;2.08;62.12
43621;BME280;29213;50.770;7.298;2022-12-05T00:08:08;100837.22;;;2.51;62.35
43621;BME280;29213;50.770;7.298;2022-12-05T00:10:38;100726.25;;;1.81;62.64
43621;BME280;29213;50.770;7.298;2022-12-05T00:13:03;100841.03;;;2.47;62.57
43621;BME280;29213;50.770;7.298;2022-12-05T00:15:29;100795.78;;;2.15;62.09
43621;BME280;29213;50.770;7.298;2022-12-05T00:17:54;100582.97;;;0.84;62.66
43621;BME280;29213;50.770;7.298;2022-12-05T00:20:20;100794.84;;;2.17;62.46
43621;BME280;29213;50.770;7.298;2022-12-05T00:22:46;100812.19;;;2.19;62.53
43621;BME280;29213;50.770;7.298;2022-12-05T00:25:11;100794.53;;;2.08;62.68
43621;BME280;29213;50.770;7.298;2022-12-05T00:27:37;100847.44;;;2.43;62.49
43621;BME280;29213;50.770;7.298;2022-12-05T00:30:03;100797.97;;;2.09;62.70
43621;BME280;29213;50.770;7.298;2022-12-05T00:32:30;100770.06;;;1.93;62.31
43621;BME280;29213;50.770;7.298;2022-12-05T00:34:55;100848.41;;;2.41;62.56
43621;BME280;29213;50.770;7.298;2022-12-05T00:37:22;100851.03;;;2.41;62.88
43621;BME280;29213;50.770;7.298;2022-12-05T00:39:47;100843.22;;;2.40;62.49
43621;BME280;29213;50.770;7.298;2022-12-05T00:42:13;100800.00;;;2.18;62.60
43621;BME280;29213;50.770;7.298;2022-12-05T00:44:38;100838.81;;;2.40;62.38
43621;BME280;29213;50.770;7.298;2022-12-05T00:47:04;100753.81;;;1.88;62.53
43621;BME280;29213;50.770;7.298;2022-12-05T00:49:29;100776.81;;;1.97;62.69
43621;BME280;29213;50.770;7.298;2022-12-05T00:51:54;100835.53;;;2.37;62.60
43621;BME280;29213;50.770;7.298;2022-12-05T00:54:20;100839.03;;;2.37;63.17
43621;BME280;29213;50.770;7.298;2022-12-05T00:56:45;100672.50;;;1.33;63.10
43621;BME280;29213;50.770;7.298;2022-12-05T00:59:18;100756.72;;;1.83;63.00
43621;BME280;29213;50.770;7.298;2022-12-05T01:01:45;100839.03;;;2.37;63.14
43621;BME280;29213;50.770;7.298;2022-12-05T01:04:20;100761.25;;;1.81;62.82
43621;BME280;29213;50.770;7.298;2022-12-05T01:06:46;100845.75;;;2.28;63.00
43621;BME280;29213;50.770;7.298;2022-12-05T01:09:14;100786.56;;;1.82;62.63
43621;BME280;29213;50.770;7.298;2022-12-05T01:11:40;100825.59;;;2.01;62.86
43621;BME280;29213;50.770;7.298;2022-12-05T01:14:06;100847.81;;;2.10;62.88
43621;BME280;29213;50.770;7.298;2022-12-05T01:16:34;100588.50;;;0.52;62.48
43621;BME280;29213;50.770;7.298;2022-12-05T01:19:04;100777.91;;;1.67;62.51
43621;BME280;29213;50.770;7.298;2022-12-05T01:21:30;100864.56;;;2.22;62.35
43621;BME280;29213;50.770;7.298;2022-12-05T01:23:55;100802.22;;;1.84;62.82
43621;BME280;29213;50.770;7.298;2022-12-05T01:26:21;100831.25;;;1.95;62.79
43621;BME280;29213;50.770;7.298;2022-12-05T01:28:48;100823.22;;;1.84;62.75
43621;BME280;29213;50.770;7.298;2022-12-05T01:31:25;100881.25;;;2.08;63.03
43621;BME280;29213;50.770;7.298;2022-12-05T01:33:52;100881.34;;;2.07;63.10
43621;BME280;29213;50.770;7.298;2022-12-05T01:36:18;100839.00;;;1.84;63.20
43621;BME280;29213;50.770;7.298;2022-12-05T01:38:44;100813.28;;;1.61;63.59
43621;BME280;29213;50.770;7.298;2022-12-05T01:41:22;100878.06;;;2.03;63.71
43621;BME280;29213;50.770;7.298;2022-12-05T01:44:06;100880.75;;;2.01;63.78
43621;BME280;29213;50.770;7.298;2022-12-05T01:46:36;100811.81;;;1.57;63.33
43621;BME280;29213;50.770;7.298;2022-12-05T01:49:06;100885.28;;;1.99;63.42
43621;BME280;29213;50.770;7.298;2022-12-05T01:51:34;100889.03;;;1.95;63.12
43621;BME280;29213;50.770;7.298;2022-12-05T01:54:02;100747.94;;;1.02;62.78
43621;BME280;29213;50.770;7.298;2022-12-05T01:56:30;100857.81;;;1.63;62.61
43621;BME280;29213;50.770;7.298;2022-12-05T01:58:57;100830.88;;;1.46;63.08
43621;BME280;29213;50.770;7.298;2022-12-05T02:01:23;100858.94;;;1.59;62.72
43621;BME280;29213;50.770;7.298;2022-12-05T02:03:51;100897.81;;;1.81;62.59
43621;BME280;29213;50.770;7.298;2022-12-05T02:06:19;100798.31;;;1.21;62.65
43621;BME280;29213;50.770;7.298;2022-12-05T02:08:45;100900.63;;;1.78;62.09
43621;BME280;29213;50.770;7.298;2022-12-05T02:11:11;100859.25;;;1.54;62.03
43621;BME280;29213;50.770;7.298;2022-12-05T02:13:57;100896.72;;;1.71;62.20
43621;BME280;29213;50.770;7.298;2022-12-05T02:19:10;100895.72;;;1.59;62.51
43621;BME280;29213;50.770;7.298;2022-12-05T02:27:05;100895.16;;;1.54;62.04
43621;BME280;29213;50.770;7.298;2022-12-05T02:30:05;100903.41;;;1.47;61.73
43621;BME280;29213;50.770;7.298;2022-12-05T02:37:41;100851.53;;;1.09;62.00
43621;BME280;29213;50.770;7.298;2022-12-05T02:40:23;100838.16;;;0.99;61.60
43621;BME280;29213;50.770;7.298;2022-12-05T02:42:55;100851.75;;;1.06;61.69
43621;BME280;29213;50.770;7.298;2022-12-05T02:45:24;100795.66;;;0.65;61.71
43621;BME280;29213;50.770;7.298;2022-12-05T02:47:53;100797.16;;;0.69;61.82
43621;BME280;29213;50.770;7.298;2022-12-05T02:50:30;100848.84;;;0.96;61.79
43621;BME280;29213;50.770;7.298;2022-12-05T02:52:59;100821.88;;;0.79;62.15
43621;BME280;29213;50.770;7.298;2022-12-05T02:55:27;100900.44;;;1.25;61.70
43621;BME280;29213;50.770;7.298;2022-12-05T02:57:57;100842.28;;;0.89;62.25
43621;BME280;29213;50.770;7.298;2022-12-05T03:00:25;100891.94;;;1.21;61.94
43621;BME280;29213;50.770;7.298;2022-12-05T03:02:55;100898.22;;;1.18;61.99
43621;BME280;29213;50.770;7.298;2022-12-05T03:05:31;100887.63;;;1.05;61.61
43621;BME280;29213;50.770;7.298;2022-12-05T03:08:03;100770.47;;;0.33;61.78
43621;BME280;29213;50.770;7.298;2022-12-05T03:10:31;100773.00;;;0.35;61.61
43621;BME280;29213;50.770;7.298;2022-12-05T03:13:08;100762.03;;;0.28;61.76
43621;BME280;29213;50.770;7.298;2022-12-05T03:15:40;100780.00;;;0.34;62.05
43621;BME280;29213;50.770;7.298;2022-12-05T03:18:49;100898.88;;;1.07;62.01
43621;BME280;29213;50.770;7.298;2022-12-05T03:21:10;100888.09;;;0.98;61.95
43621;BME280;29213;50.770;7.298;2022-12-05T03:23:44;100913.84;;;1.05;61.79
43621;BME280;29213;50.770;7.298;2022-12-05T03:29:15;100775.69;;;0.19;61.73
43621;BME280;29213;50.770;7.298;2022-12-05T03:31:47;100907.13;;;1.01;62.29
43621;BME280;29213;50.770;7.298;2022-12-05T03:34:20;100858.28;;;0.70;61.90
43621;BME280;29213;50.770;7.298;2022-12-05T03:36:51;100915.00;;;1.01;62.09
43621;BME280;29213;50.770;7.298;2022-12-05T03:39:22;100852.84;;;0.58;62.03
43621;BME280;29213;50.770;7.298;2022-12-05T03:41:52;100911.59;;;0.99;62.16
43621;BME280;29213;50.770;7.298;2022-12-05T03:44:33;100887.63;;;0.76;62.03
43621;BME280;29213;50.770;7.298;2022-12-05T03:47:06;100874.88;;;0.70;62.07
43621;BME280;29213;50.770;7.298;2022-12-05T03:49:38;100910.75;;;0.84;62.38
43621;BME280;29213;50.770;7.298;2022-12-05T03:52:19;100910.00;;;0.82;62.25
43621;BME280;29213;50.770;7.298;2022-12-05T03:54:54;100866.81;;;0.59;62.20
43621;BME280;29213;50.770;7.298;2022-12-05T03:57:25;100838.41;;;0.36;62.49
43621;BME280;29213;50.770;7.298;2022-12-05T04:00:00;100927.06;;;0.89;62.37
43621;BME280;29213;50.770;7.298;2022-12-05T04:02:41;100864.81;;;0.48;62.57
43621;BME280;29213;50.770;7.298;2022-12-05T04:05:19;100844.56;;;0.35;62.52
43621;BME280;29213;50.770;7.298;2022-12-05T04:07:48;100935.94;;;0.87;62.60
43621;BME280;29213;50.770;7.298;2022-12-05T04:10:19;100887.69;;;0.60;62.94
43621;BME280;29213;50.770;7.298;2022-12-05T04:12:47;100935.22;;;0.85;62.33
43621;BME280;29213;50.770;7.298;2022-12-05T04:15:19;100885.31;;;0.55;62.57
43621;BME280;29213;50.770;7.298;2022-12-05T04:17:51;100931.44;;;0.89;62.50
43621;BME280;29213;50.770;7.298;2022-12-05T04:20:26;100941.94;;;0.89;62.66
43621;BME280;29213;50.770;7.298;2022-12-05T04:23:12;100912.97;;;0.76;62.55
43621;BME280;29213;50.770;7.298;2022-12-05T04:25:52;100866.03;;;0.42;62.79
43621;BME280;29213;50.770;7.298;2022-12-05T04:28:31;100934.94;;;0.89;62.67
43621;BME280;29213;50.770;7.298;2022-12-05T04:31:06;100928.94;;;0.87;62.37
43621;BME280;29213;50.770;7.298;2022-12-05T04:36:35;100923.84;;;0.70;62.32
43621;BME280;29213;50.770;7.298;2022-12-05T04:39:07;100934.16;;;0.73;62.81
43621;BME280;29213;50.770;7.298;2022-12-05T04:41:41;100942.97;;;0.86;62.83
43621;BME280;29213;50.770;7.298;2022-12-05T04:44:11;100898.63;;;0.52;62.70
43621;BME280;29213;50.770;7.298;2022-12-05T04:46:42;100866.09;;;0.26;62.58
43621;BME280;29213;50.770;7.298;2022-12-05T04:49:11;100845.47;;;0.20;62.65
43621;BME280;29213;50.770;7.298;2022-12-05T04:51:39;100829.53;;;0.08;62.57
43621;BME280;29213;50.770;7.298;2022-12-05T04:54:14;100909.13;;;0.52;62.97
43621;BME280;29213;50.770;7.298;2022-12-05T04:56:43;100812.69;;;-0.02;63.00
43621;BME280;29213;50.770;7.298;2022-12-05T04:59:11;100954.59;;;0.82;63.06
43621;BME280;29213;50.770;7.298;2022-12-05T05:01:47;100904.03;;;0.49;63.09
43621;BME280;29213;50.770;7.298;2022-12-05T05:04:25;100836.38;;;0.11;62.67
43621;BME280;29213;50.770;7.298;2022-12-05T05:06:52;100824.84;;;-0.01;62.62
43621;BME280;29213;50.770;7.298;2022-12-05T05:09:18;100854.69;;;0.27;62.73
43621;BME280;29213;50.770;7.298;2022-12-05T05:11:43;100948.31;;;0.85;62.63
43621;BME280;29213;50.770;7.298;2022-12-05T05:14:08;100950.94;;;0.85;62.78
43621;BME280;29213;50.770;7.298;2022-12-05T05:16:36;100952.72;;;0.84;62.83
43621;BME280;29213;50.770;7.298;2022-12-05T05:19:03;100952.72;;;0.84;62.63
43621;BME280;29213;50.770;7.298;2022-12-05T05:21:39;100955.34;;;0.84;62.65
43621;BME280;29213;50.770;7.298;2022-12-05T05:24:05;100884.66;;;0.37;62.58
43621;BME280;29213;50.770;7.298;2022-12-05T05:26:34;100912.31;;;0.58;62.92
43621;BME280;29213;50.770;7.298;2022-12-05T05:28:59;100892.16;;;0.44;62.82
43621;BME280;29213;50.770;7.298;2022-12-05T05:31:25;100958.91;;;0.83;62.66
43621;BME280;29213;50.770;7.298;2022-12-05T05:33:52;100942.56;;;0.63;63.18
43621;BME280;29213;50.770;7.298;2022-12-05T05:36:19;100961.22;;;0.73;62.82
43621;BME280;29213;50.770;7.298;2022-12-05T05:38:48;100880.69;;;0.30;62.91
43621;BME280;29213;50.770;7.298;2022-12-05T05:41:16;100964.06;;;0.85;62.67
43621;BME280;29213;50.770;7.298;2022-12-05T05:43:42;100868.72;;;0.26;63.03
43621;BME280;29213;50.770;7.298;2022-12-05T05:46:09;100959.63;;;0.85;62.64
43621;BME280;29213;50.770;7.298;2022-12-05T05:48:35;100962.09;;;0.88;62.64
43621;BME280;29213;50.770;7.298;2022-12-05T05:51:01;100962.09;;;0.88;62.59
43621;BME280;29213;50.770;7.298;2022-12-05T05:53:27;100963.88;;;0.88;62.73
43621;BME280;29213;50.770;7.298;2022-12-05T05:55:53;100970.91;;;0.87;62.45
43621;BME280;29213;50.770;7.298;2022-12-05T05:58:19;100931.09;;;0.50;62.68
43621;BME280;29213;50.770;7.298;2022-12-05T06:00:44;100866.25;;;0.23;62.54
43621;BME280;29213;50.770;7.298;2022-12-05T06:03:10;100985.78;;;0.87;62.99
43621;BME280;29213;50.770;7.298;2022-12-05T06:05:35;100985.78;;;0.87;62.79
43621;BME280;29213;50.770;7.298;2022-12-05T06:08:01;100987.53;;;0.86;63.08
43621;BME280;29213;50.770;7.298;2022-12-05T06:10:26;100932.03;;;0.49;62.90
43621;BME280;29213;50.770;7.298;2022-12-05T06:12:54;100883.88;;;0.21;63.09
43621;BME280;29213;50.770;7.298;2022-12-05T06:15:19;100945.38;;;0.60;62.90
43621;BME280;29213;50.770;7.298;2022-12-05T06:17:44;100967.28;;;0.74;62.96
43621;BME280;29213;50.770;7.298;2022-12-05T06:20:10;100943.78;;;0.58;63.06
43621;BME280;29213;50.770;7.298;2022-12-05T06:22:35;100886.47;;;0.21;63.24
43621;BME280;29213;50.770;7.298;2022-12-05T06:25:01;100947.06;;;0.61;63.12
43621;BME280;29213;50.770;7.298;2022-12-05T06:27:28;100904.25;;;0.30;63.18
43621;BME280;29213;50.770;7.298;2022-12-05T06:29:54;100979.88;;;0.83;63.10
43621;BME280;29213;50.770;7.298;2022-12-05T06:32:19;100872.03;;;0.13;62.97
43621;BME280;29213;50.770;7.298;2022-12-05T06:34:44;100953.91;;;0.64;62.97
43621;BME280;29213;50.770;7.298;2022-12-05T06:37:10;100998.16;;;0.85;63.11
43621;BME280;29213;50.770;7.298;2022-12-05T06:39:35;100965.63;;;0.73;63.04
43621;BME280;29213;50.770;7.298;2022-12-05T06:42:01;100887.38;;;0.20;63.04
43621;BME280;29213;50.770;7.298;2022-12-05T06:44:27;100991.03;;;0.87;62.73
43621;BME280;29213;50.770;7.298;2022-12-05T06:46:53;100997.13;;;0.87;62.93
43621;BME280;29213;50.770;7.298;2022-12-05T06:49:19;100989.34;;;0.86;62.96
43621;BME280;29213;50.770;7.298;2022-12-05T06:51:44;100825.06;;;-0.20;62.78
43621;BME280;29213;50.770;7.298;2022-12-05T06:54:11;100957.53;;;0.61;62.58
43621;BME280;29213;50.770;7.298;2022-12-05T06:56:37;100945.31;;;0.46;63.14
43621;BME280;29213;50.770;7.298;2022-12-05T06:59:02;101002.38;;;0.87;62.97
43621;BME280;29213;50.770;7.298;2022-12-05T07:01:27;101013.78;;;0.86;62.78
43621;BME280;29213;50.770;7.298;2022-12-05T07:04:18;100864.88;;;0.01;62.99
43621;BME280;29213;50.770;7.298;2022-12-05T07:06:49;101009.31;;;0.88;62.73
43621;BME280;29213;50.770;7.298;2022-12-05T07:09:16;100912.56;;;0.22;63.20
43621;BME280;29213;50.770;7.298;2022-12-05T07:11:46;101017.34;;;0.85;62.93
43621;BME280;29213;50.770;7.298;2022-12-05T07:14:12;100962.56;;;0.50;63.25
43621;BME280;29213;50.770;7.298;2022-12-05T07:16:37;100954.13;;;0.45;63.17
43621;BME280;29213;50.770;7.298;2022-12-05T07:19:03;100891.25;;;0.74;77.76
43621;BME280;29213;50.770;7.298;2022-12-05T07:21:28;100935.56;;;2.48;71.74
43621;BME280;29213;50.770;7.298;2022-12-05T07:23:53;100869.38;;;1.88;63.64
43621;BME280;29213;50.770;7.298;2022-12-05T07:26:21;101028.13;;;2.53;62.31
43621;BME280;29213;50.770;7.298;2022-12-05T07:28:48;100976.88;;;1.91;62.13
43621;BME280;29213;50.770;7.298;2022-12-05T07:31:19;101006.31;;;1.96;61.30
43621;BME280;29213;50.770;7.298;2022-12-05T07:33:46;101002.88;;;1.81;61.04
43621;BME280;29213;50.770;7.298;2022-12-05T07:36:14;100784.69;;;0.29;61.42
43621;BME280;29213;50.770;7.298;2022-12-05T07:38:40;100995.50;;;1.44;61.75
43621;BME280;29213;50.770;7.298;2022-12-05T07:41:13;101017.97;;;1.48;61.92
43621;BME280;29213;50.770;7.298;2022-12-05T07:43:41;101045.84;;;1.66;61.63
43621;BME280;29213;50.770;7.298;2022-12-05T07:46:07;101045.19;;;1.62;61.55
43621;BME280;29213;50.770;7.298;2022-12-05T07:48:32;101047.34;;;1.55;61.58
43621;BME280;29213;50.770;7.298;2022-12-05T07:51:00;100954.09;;;0.90;61.77
43621;BME280;29213;50.770;7.298;2022-12-05T07:53:26;100921.56;;;0.63;61.58
43621;BME280;29213;50.770;7.298;2022-12-05T07:55:51;100973.31;;;0.90;62.12
43621;BME280;29213;50.770;7.298;2022-12-05T07:58:17;100878.44;;;0.24;61.88
43621;BME280;29213;50.770;7.298;2022-12-05T08:00:42;100968.97;;;0.75;62.30
43621;BME280;29213;50.770;7.298;2022-12-05T08:03:07;101072.25;;;1.33;62.02
43621;BME280;29213;50.770;7.298;2022-12-05T08:05:33;100966.56;;;0.72;62.21
43621;BME280;29213;50.770;7.298;2022-12-05T08:07:58;100965.78;;;0.70;62.11
43621;BME280;29213;50.770;7.298;2022-12-05T08:10:24;101032.88;;;1.19;62.63
43621;BME280;29213;50.770;7.298;2022-12-05T08:12:49;100970.66;;;0.76;62.42
43621;BME280;29213;50.770;7.298;2022-12-05T08:15:15;101006.31;;;0.94;62.61
43621;BME280;29213;50.770;7.298;2022-12-05T08:17:40;100970.94;;;0.71;62.74
43621;BME280;29213;50.770;7.298;2022-12-05T08:20:06;101070.19;;;1.24;62.70
43621;BME280;29213;50.770;7.298;2022-12-05T08:22:31;100990.06;;;0.73;62.99
43621;BME280;29213;50.770;7.298;2022-12-05T08:24:57;100982.72;;;0.64;62.83
43621;BME280;29213;50.770;7.298;2022-12-05T08:27:22;101032.19;;;1.01;63.49
43621;BME280;29213;50.770;7.298;2022-12-05T08:29:47;100954.34;;;0.56;62.39
43621;BME280;29213;50.770;7.298;2022-12-05T08:32:13;101018.94;;;0.88;62.65
43621;BME280;29213;50.770;7.298;2022-12-05T08:34:38;101018.00;;;0.89;62.93
43621;BME280;29213;50.770;7.298;2022-12-05T08:37:03;101038.44;;;0.98;63.06
43621;BME280;29213;50.770;7.298;2022-12-05T08:39:29;101061.34;;;1.11;62.65
43621;BME280;29213;50.770;7.298;2022-12-05T08:41:55;100967.53;;;0.54;63.29
43621;BME280;29213;50.770;7.298;2022-12-05T08:44:21;101036.69;;;0.99;63.12
43621;BME280;29213;50.770;7.298;2022-12-05T08:46:47;101092.59;;;1.30;63.35
43621;BME280;29213;50.770;7.298;2022-12-05T08:49:14;101014.13;;;0.80;63.13
43621;BME280;29213;50.770;7.298;2022-12-05T08:51:40;101096.91;;;1.31;63.00
43621;BME280;29213;50.770;7.298;2022-12-05T08:54:06;101016.84;;;0.78;63.06
43621;BME280;29213;50.770;7.298;2022-12-05T08:56:31;101049.22;;;0.93;63.00
43621;BME280;29213;50.770;7.298;2022-12-05T08:58:57;101068.47;;;1.08;62.96
43621;BME280;29213;50.770;7.298;2022-12-05T09:01:23;101019.97;;;0.85;62.98
43621;BME280;29213;50.770;7.298;2022-12-05T09:03:50;100971.94;;;0.54;63.18
43621;BME280;29213;50.770;7.298;2022-12-05T09:06:24;101101.03;;;1.35;63.14
43621;BME280;29213;50.770;7.298;2022-12-05T09:08:56;101107.88;;;1.38;63.22
43621;BME280;29213;50.770;7.298;2022-12-05T09:11:35;101102.47;;;1.41;63.21
43621;BME280;29213;50.770;7.298;2022-12-05T09:14:03;101106.50;;;1.46;63.15
43621;BME280;29213;50.770;7.298;2022-12-05T09:16:31;101110.81;;;1.47;62.94
43621;BME280;29213;50.770;7.298;2022-12-05T09:18:57;101109.78;;;1.50;62.92
43621;BME280;29213;50.770;7.298;2022-12-05T09:21:30;101113.19;;;1.52;62.90
43621;BME280;29213;50.770;7.298;2022-12-05T09:23:59;101113.84;;;1.56;62.78
43621;BME280;29213;50.770;7.298;2022-12-05T09:26:27;101119.75;;;1.59;63.08
43621;BME280;29213;50.770;7.298;2022-12-05T09:28:54;101119.53;;;1.62;62.98
43621;BME280;29213;50.770;7.298;2022-12-05T09:31:26;101123.97;;;1.62;62.69
43621;BME280;29213;50.770;7.298;2022-12-05T09:33:53;101129.88;;;1.66;62.55
43621;BME280;29213;50.770;7.298;2022-12-05T09:36:27;101129.78;;;1.67;62.70
43621;BME280;29213;50.770;7.298;2022-12-05T09:39:04;101131.56;;;1.67;62.78
43621;BME280;29213;50.770;7.298;2022-12-05T09:50:00;101133.81;;;1.73;62.88
43621;BME280;29213;50.770;7.298;2022-12-05T09:55:38;101140.66;;;1.75;62.50
43621;BME280;29213;50.770;7.298;2022-12-05T10:01:10;101083.81;;;1.45;63.26
43621;BME280;29213;50.770;7.298;2022-12-05T10:03:50;101114.97;;;1.66;63.00
43621;BME280;29213;50.770;7.298;2022-12-05T10:06:24;101135.88;;;1.82;63.80
43621;BME280;29213;50.770;7.298;2022-12-05T10:12:40;101136.16;;;1.92;62.94
43621;BME280;29213;50.770;7.298;2022-12-05T10:21:01;101133.06;;;2.00;63.01
43621;BME280;29213;50.770;7.298;2022-12-05T10:25:58;101134.69;;;2.03;62.88
43621;BME280;29213;50.770;7.298;2022-12-05T10:31:00;101133.75;;;2.04;62.65
43621;BME280;29213;50.770;7.298;2022-12-05T10:33:32;101138.72;;;1.94;61.95
43621;BME280;29213;50.770;7.298;2022-12-05T10:36:08;101132.59;;;1.93;61.96
43621;BME280;29213;50.770;7.298;2022-12-05T10:38:34;101133.38;;;1.95;62.52
43621;BME280;29213;50.770;7.298;2022-12-05T10:41:05;101130.53;;;1.98;62.48
43621;BME280;29213;50.770;7.298;2022-12-05T10:43:33;101127.72;;;2.01;62.01
43621;BME280;29213;50.770;7.298;2022-12-05T10:46:02;101123.25;;;2.04;62.27
43621;BME280;29213;50.770;7.298;2022-12-05T10:48:29;101124.19;;;2.03;61.80
43621;BME280;29213;50.770;7.298;2022-12-05T10:50:57;101127.69;;;2.03;62.00
43621;BME280;29213;50.770;7.298;2022-12-05T10:53:28;101128.25;;;2.08;62.39
43621;BME280;29213;50.770;7.298;2022-12-05T10:56:00;101128.03;;;2.11;63.01
43621;BME280;29213;50.770;7.298;2022-12-05T10:58:31;101126.06;;;2.15;63.00
43621;BME280;29213;50.770;7.298;2022-12-05T11:01:08;101124.94;;;2.19;62.60
43621;BME280;29213;50.770;7.298;2022-12-05T11:03:38;101122.00;;;2.24;62.55
43621;BME280;29213;50.770;7.298;2022-12-05T11:06:17;101128.03;;;2.26;62.74
43621;BME280;29213;50.770;7.298;2022-12-05T11:08:55;101123.41;;;2.30;62.70
43621;BME280;29213;50.770;7.298;2022-12-05T11:11:28;101121.53;;;2.32;62.94
43621;BME280;29213;50.770;7.298;2022-12-05T11:13:57;101116.09;;;2.35;63.06
43621;BME280;29213;50.770;7.298;2022-12-05T11:16:26;101123.78;;;2.38;62.94
43621;BME280;29213;50.770;7.298;2022-12-05T11:18:53;101117.47;;;2.40;62.31
43621;BME280;29213;50.770;7.298;2022-12-05T11:21:19;101127.91;;;2.42;62.92
43621;BME280;29213;50.770;7.298;2022-12-05T11:23:46;101120.66;;;2.46;63.05
43621;BME280;29213;50.770;7.298;2022-12-05T11:28:44;101121.44;;;2.48;62.59
43621;BME280;29213;50.770;7.298;2022-12-05T11:33:39;101120.56;;;2.47;63.04
43621;BME280;29213;50.770;7.298;2022-12-05T11:36:19;101125.66;;;2.50;62.85
43621;BME280;29213;50.770;7.298;2022-12-05T11:38:47;101126.47;;;2.51;62.54
43621;BME280;29213;50.770;7.298;2022-12-05T11:46:46;101098.44;;;2.37;62.69
43621;BME280;29213;50.770;7.298;2022-12-05T11:52:25;101121.50;;;2.61;63.22
43621;BME280;29213;50.770;7.298;2022-12-05T11:58:17;101107.72;;;2.70;62.59
43621;BME280;29213;50.770;7.298;2022-12-05T12:00:58;101104.91;;;2.73;61.98
43621;BME280;29213;50.770;7.298;2022-12-05T12:12:35;101093.78;;;2.82;61.87
43621;BME280;29213;50.770;7.298;2022-12-05T12:15:30;101094.31;;;2.88;61.68
43621;BME280;29213;50.770;7.298;2022-12-05T12:32:00;101103.22;;;2.72;62.42
43621;BME280;29213;50.770;7.298;2022-12-05T12:34:59;101101.03;;;2.79;62.87
43621;BME280;29213;50.770;7.298;2022-12-05T12:37:59;101099.78;;;2.85;62.86
43621;BME280;29213;50.770;7.298;2022-12-05T12:48:36;101124.84;;;2.90;62.22
43621;BME280;29213;50.770;7.298;2022-12-05T12:51:10;101103.28;;;2.98;61.97
43621;BME280;29213;50.770;7.298;2022-12-05T12:59:30;100921.28;;;2.12;62.58
43621;BME280;29213;50.770;7.298;2022-12-05T13:04:35;101108.63;;;3.24;61.70
43621;BME280;29213;50.770;7.298;2022-12-05T13:07:14;101065.72;;;2.96;62.29
43621;BME280;29213;50.770;7.298;2022-12-05T13:09:46;101135.25;;;3.19;62.08
43621;BME280;29213;50.770;7.298;2022-12-05T13:12:16;100909.28;;;1.93;62.32
43621;BME280;29213;50.770;7.298;2022-12-05T13:14:51;100996.25;;;2.45;61.73
43621;BME280;29213;50.770;7.298;2022-12-05T13:17:19;100894.25;;;1.82;61.80
43621;BME280;29213;50.770;7.298;2022-12-05T13:19:50;101107.19;;;3.05;61.67
43621;BME280;29213;50.770;7.298;2022-12-05T13:22:21;101101.28;;;3.02;62.05
43621;BME280;29213;50.770;7.298;2022-12-05T13:24:49;101096.25;;;2.99;62.10
43621;BME280;29213;50.770;7.298;2022-12-05T13:27:18;100998.09;;;2.30;62.07
43621;BME280;29213;50.770;7.298;2022-12-05T13:29:50;100949.47;;;1.95;62.57
43621;BME280;29213;50.770;7.298;2022-12-05T13:32:29;100972.72;;;2.16;67.99
43621;BME280;29213;50.770;7.298;2022-12-05T13:35:19;101089.47;;;3.48;70.69
43621;BME280;29213;50.770;7.298;2022-12-05T13:38:01;101105.09;;;4.65;66.82
43621;BME280;29213;50.770;7.298;2022-12-05T13:40:50;101070.41;;;4.21;62.12
43621;BME280;29213;50.770;7.298;2022-12-05T13:43:40;101072.28;;;3.94;61.25
43621;BME280;29213;50.770;7.298;2022-12-05T13:46:11;100990.06;;;3.26;60.35
43621;BME280;29213;50.770;7.298;2022-12-05T13:48:46;101039.66;;;3.45;60.98
43621;BME280;29213;50.770;7.298;2022-12-05T13:51:22;101072.72;;;3.49;60.91
43621;BME280;29213;50.770;7.298;2022-12-05T13:53:58;101066.19;;;3.29;61.33
43621;BME280;29213;50.770;7.298;2022-12-05T13:56:29;101124.16;;;3.68;61.41
43621;BME280;29213;50.770;7.298;2022-12-05T13:59:09;101124.69;;;3.60;61.19
43621;BME280;29213;50.770;7.298;2022-12-05T14:01:48;101133.00;;;3.54;61.36
43621;BME280;29213;50.770;7.298;2022-12-05T14:04:44;101125.63;;;3.46;61.29
43621;BME280;29213;50.770;7.298;2022-12-05T14:07:11;101039.38;;;2.83;63.69
43621;BME280;29213;50.770;7.298;2022-12-05T14:09:53;101126.56;;;3.45;61.91
43621;BME280;29213;50.770;7.298;2022-12-05T14:17:42;101116.09;;;3.30;61.63
43621;BME280;29213;50.770;7.298;2022-12-05T14:25:24;101014.50;;;2.61;61.82
43621;BME280;29213;50.770;7.298;2022-12-05T14:28:10;101013.75;;;2.59;61.44
43621;BME280;29213;50.770;7.298;2022-12-05T14:33:26;100974.09;;;2.22;62.01
43621;BME280;29213;50.770;7.298;2022-12-05T14:35:52;101128.41;;;3.17;62.01
43621;BME280;29213;50.770;7.298;2022-12-05T14:38:26;101041.84;;;2.59;62.51
43621;BME280;29213;50.770;7.298;2022-12-05T14:40:54;101103.28;;;2.98;62.05
43621;BME280;29213;50.770;7.298;2022-12-05T14:43:26;101128.78;;;3.11;62.96
43621;BME280;29213;50.770;7.298;2022-12-05T14:45:59;101133.22;;;3.10;62.48
43621;BME280;29213;50.770;7.298;2022-12-05T14:48:32;101076.94;;;2.72;62.81
43621;BME280;29213;50.770;7.298;2022-12-05T14:51:00;101128.16;;;3.07;62.33
43621;BME280;29213;50.770;7.298;2022-12-05T14:53:39;101075.03;;;2.74;62.28
43621;BME280;29213;50.770;7.298;2022-12-05T14:56:23;101126.25;;;3.49;70.89
43621;BME280;29213;50.770;7.298;2022-12-05T14:59:03;101125.50;;;3.73;64.51
43621;BME280;29213;50.770;7.298;2022-12-05T15:01:42;101116.69;;;3.61;62.92
43621;BME280;29213;50.770;7.298;2022-12-05T15:06:54;101123.41;;;3.40;62.16
43621;BME280;29213;50.770;7.298;2022-12-05T15:12:19;101080.38;;;3.00;62.02
43621;BME280;29213;50.770;7.298;2022-12-05T15:14:53;101135.59;;;3.28;62.07
43621;BME280;29213;50.770;7.298;2022-12-05T15:17:25;100938.56;;;2.01;61.94
43621;BME280;29213;50.770;7.298;2022-12-05T15:19:55;100981.88;;;2.23;62.09